sensor_id;sensor_type;location;lat;lon;timestamp;temperature;humidity
28530;DHT22;15737;49.760;6.632;2023-02-26T00:01:19;-0.10;99.90
28530;DHT22;15737;49.760;6.632;2023-02-26T00:03:54;-0.10;99.90
28530;DHT22;15737;49.760;6.632;2023-02-26T00:06:20;0.00;99.90
28530;DHT22;15737;49.760;6.632;2023-02-26T00:08:46;-0.10;99.90
28530;DHT22;15737;49.760;6.632;2023-02-26T00:11:12;-0.10;99.90
28530;DHT22;15737;49.760;6.632;2023-02-26T00:13:40;-0.20;99.90
28530;DHT22;15737;49.760;6.632;2023-02-26T00:16:27;-0.10;99.90
28530;DHT22;15737;49.760;6.632;2023-02-26T00:18:57;-0.20;99.90
28530;DHT22;15737;49.760;6.632;2023-02-26T00:21:24;-0.20;99.90
28530;DHT22;15737;49.760;6.632;2023-02-26T00:23:51;-0.20;99.90
28530;DHT22;15737;49.760;6.632;2023-02-26T00:26:17;-0.40;99.90
28530;DHT22;15737;49.760;6.632;2023-02-26T00:28:43;-0.40;99.90
28530;DHT22;15737;49.760;6.632;2023-02-26T00:31:09;-0.40;99.90
28530;DHT22;15737;49.760;6.632;2023-02-26T00:33:35;-0.40;99.90
28530;DHT22;15737;49.760;6.632;2023-02-26T00:36:23;-0.40;99.90
28530;DHT22;15737;49.760;6.632;2023-02-26T00:39:24;-0.50;99.90
28530;DHT22;15737;49.760;6.632;2023-02-26T00:41:54;-0.60;99.90
28530;DHT22;15737;49.760;6.632;2023-02-26T00:44:19;-0.60;99.90
28530;DHT22;15737;49.760;6.632;2023-02-26T00:47:13;-0.60;99.90
28530;DHT22;15737;49.760;6.632;2023-02-26T00:50:22;-0.70;99.90
28530;DHT22;15737;49.760;6.632;2023-02-26T00:53:11;-0.70;99.90
28530;DHT22;15737;49.760;6.632;2023-02-26T00:55:40;-0.70;99.90
28530;DHT22;15737;49.760;6.632;2023-02-26T00:58:06;-0.70;99.90
28530;DHT22;15737;49.760;6.632;2023-02-26T01:00:32;-0.70;99.90
28530;DHT22;15737;49.760;6.632;2023-02-26T01:02:57;-0.70;99.90
28530;DHT22;15737;49.760;6.632;2023-02-26T01:05:23;-0.50;99.90
28530;DHT22;15737;49.760;6.632;2023-02-26T01:08:04;-0.30;99.90
28530;DHT22;15737;49.760;6.632;2023-02-26T01:10:31;-0.20;99.90
28530;DHT22;15737;49.760;6.632;2023-02-26T01:12:57;-0.10;99.90
28530;DHT22;15737;49.760;6.632;2023-02-26T01:15:23;-0.10;99.90
28530;DHT22;15737;49.760;6.632;2023-02-26T01:18:12;-0.10;99.90
28530;DHT22;15737;49.760;6.632;2023-02-26T01:20:46;0.10;99.90
28530;DHT22;15737;49.760;6.632;2023-02-26T01:23:19;0.20;99.90
28530;DHT22;15737;49.760;6.632;2023-02-26T01:25:50;0.40;99.90
28530;DHT22;15737;49.760;6.632;2023-02-26T01:28:19;0.50;99.90
28530;DHT22;15737;49.760;6.632;2023-02-26T01:30:45;0.60;99.90
28530;DHT22;15737;49.760;6.632;2023-02-26T01:35:54;0.80;99.90
28530;DHT22;15737;49.760;6.632;2023-02-26T01:38:51;0.70;99.90
28530;DHT22;15737;49.760;6.632;2023-02-26T01:41:23;0.80;99.90
28530;DHT22;15737;49.760;6.632;2023-02-26T01:43:56;0.80;99.90
28530;DHT22;15737;49.760;6.632;2023-02-26T01:47:02;0.90;99.90
28530;DHT22;15737;49.760;6.632;2023-02-26T01:49:29;0.90;99.90
28530;DHT22;15737;49.760;6.632;2023-02-26T01:52:00;0.80;99.90
28530;DHT22;15737;49.760;6.632;2023-02-26T01:54:30;0.60;99.90
28530;DHT22;15737;49.760;6.632;2023-02-26T01:57:01;0.40;99.90
28530;DHT22;15737;49.760;6.632;2023-02-26T01:59:32;0.20;99.90
28530;DHT22;15737;49.760;6.632;2023-02-26T02:01:59;0.00;99.90
28530;DHT22;15737;49.760;6.632;2023-02-26T02:04:26;-0.10;99.90
28530;DHT22;15737;49.760;6.632;2023-02-26T02:06:53;-0.10;99.90
28530;DHT22;15737;49.760;6.632;2023-02-26T02:09:18;-0.20;99.90
28530;DHT22;15737;49.760;6.632;2023-02-26T02:18:02;-0.20;99.90
28530;DHT22;15737;49.760;6.632;2023-02-26T02:20:51;-0.20;99.90
28530;DHT22;15737;49.760;6.632;2023-02-26T02:23:35;-0.30;99.90
28530;DHT22;15737;49.760;6.632;2023-02-26T02:26:11;-0.50;99.90
28530;DHT22;15737;49.760;6.632;2023-02-26T02:31:45;-0.90;99.90
28530;DHT22;15737;49.760;6.632;2023-02-26T02:34:52;-0.90;99.90
28530;DHT22;15737;49.760;6.632;2023-02-26T02:37:28;-0.80;99.90
28530;DHT22;15737;49.760;6.632;2023-02-26T02:40:05;-0.80;99.90
28530;DHT22;15737;49.760;6.632;2023-02-26T02:42:37;-0.80;99.90
28530;DHT22;15737;49.760;6.632;2023-02-26T02:45:13;-0.80;99.90
28530;DHT22;15737;49.760;6.632;2023-02-26T02:47:41;-0.70;99.90
28530;DHT22;15737;49.760;6.632;2023-02-26T02:50:33;-0.70;99.90
28530;DHT22;15737;49.760;6.632;2023-02-26T02:53:21;-0.60;99.90
28530;DHT22;15737;49.760;6.632;2023-02-26T02:56:01;-0.60;99.90
28530;DHT22;15737;49.760;6.632;2023-02-26T02:58:31;-0.40;99.90
28530;DHT22;15737;49.760;6.632;2023-02-26T03:01:01;-0.30;99.90
28530;DHT22;15737;49.760;6.632;2023-02-26T03:03:33;-0.30;99.90
28530;DHT22;15737;49.760;6.632;2023-02-26T03:05:59;-0.30;99.90
28530;DHT22;15737;49.760;6.632;2023-02-26T03:08:27;-0.20;99.90
28530;DHT22;15737;49.760;6.632;2023-02-26T03:10:54;0.00;99.90
28530;DHT22;15737;49.760;6.632;2023-02-26T03:13:22;0.10;99.90
28530;DHT22;15737;49.760;6.632;2023-02-26T03:22:00;0.10;99.90
28530;DHT22;15737;49.760;6.632;2023-02-26T03:27:19;0.10;99.90
28530;DHT22;15737;49.760;6.632;2023-02-26T03:30:06;0.10;99.90
28530;DHT22;15737;49.760;6.632;2023-02-26T03:33:05;0.10;99.90
28530;DHT22;15737;49.760;6.632;2023-02-26T03:36:02;-0.10;99.90
28530;DHT22;15737;49.760;6.632;2023-02-26T03:38:40;-0.20;99.90
28530;DHT22;15737;49.760;6.632;2023-02-26T03:41:13;-0.30;99.90
28530;DHT22;15737;49.760;6.632;2023-02-26T03:44:00;-0.30;99.90
28530;DHT22;15737;49.760;6.632;2023-02-26T03:46:31;-0.40;99.90
28530;DHT22;15737;49.760;6.632;2023-02-26T03:49:02;-0.40;99.90
28530;DHT22;15737;49.760;6.632;2023-02-26T03:51:30;-0.40;99.90
28530;DHT22;15737;49.760;6.632;2023-02-26T03:54:07;-0.30;99.90
28530;DHT22;15737;49.760;6.632;2023-02-26T03:56:39;-0.20;99.90
28530;DHT22;15737;49.760;6.632;2023-02-26T03:59:05;-0.30;99.90
28530;DHT22;15737;49.760;6.632;2023-02-26T04:01:38;-0.30;99.90
28530;DHT22;15737;49.760;6.632;2023-02-26T04:04:09;-0.30;99.90
28530;DHT22;15737;49.760;6.632;2023-02-26T04:06:37;-0.40;99.90
28530;DHT22;15737;49.760;6.632;2023-02-26T04:09:03;-0.40;99.90
28530;DHT22;15737;49.760;6.632;2023-02-26T04:11:29;-0.40;99.90
28530;DHT22;15737;49.760;6.632;2023-02-26T04:13:55;-0.40;99.90
28530;DHT22;15737;49.760;6.632;2023-02-26T04:16:21;-0.40;99.90
28530;DHT22;15737;49.760;6.632;2023-02-26T04:18:48;-0.30;99.90
28530;DHT22;15737;49.760;6.632;2023-02-26T04:21:15;-0.30;99.90
28530;DHT22;15737;49.760;6.632;2023-02-26T04:23:41;-0.20;99.90
28530;DHT22;15737;49.760;6.632;2023-02-26T04:26:06;-0.10;99.90
28530;DHT22;15737;49.760;6.632;2023-02-26T04:28:32;0.00;99.90
28530;DHT22;15737;49.760;6.632;2023-02-26T04:30:59;0.10;99.90
28530;DHT22;15737;49.760;6.632;2023-02-26T04:33:25;0.10;99.90
28530;DHT22;15737;49.760;6.632;2023-02-26T04:35:51;0.10;99.90
28530;DHT22;15737;49.760;6.632;2023-02-26T04:38:17;0.10;99.90
28530;DHT22;15737;49.760;6.632;2023-02-26T04:40:42;0.10;99.90
28530;DHT22;15737;49.760;6.632;2023-02-26T04:43:08;0.20;99.90
28530;DHT22;15737;49.760;6.632;2023-02-26T04:45:34;0.20;99.90
28530;DHT22;15737;49.760;6.632;2023-02-26T04:47:59;0.20;99.90
28530;DHT22;15737;49.760;6.632;2023-02-26T04:50:24;0.10;99.90
28530;DHT22;15737;49.760;6.632;2023-02-26T04:52:50;0.00;99.90
28530;DHT22;15737;49.760;6.632;2023-02-26T04:55:16;-0.10;99.90
28530;DHT22;15737;49.760;6.632;2023-02-26T04:57:41;-0.20;99.90
28530;DHT22;15737;49.760;6.632;2023-02-26T05:00:07;-0.30;99.90
28530;DHT22;15737;49.760;6.632;2023-02-26T05:02:33;-0.30;99.90
28530;DHT22;15737;49.760;6.632;2023-02-26T05:04:58;-0.30;99.90
28530;DHT22;15737;49.760;6.632;2023-02-26T05:07:24;-0.20;99.90
28530;DHT22;15737;49.760;6.632;2023-02-26T05:09:49;-0.20;99.90
28530;DHT22;15737;49.760;6.632;2023-02-26T05:12:15;-0.20;99.90
28530;DHT22;15737;49.760;6.632;2023-02-26T05:14:40;-0.30;99.90
28530;DHT22;15737;49.760;6.632;2023-02-26T05:17:06;-0.40;99.90
28530;DHT22;15737;49.760;6.632;2023-02-26T05:19:32;-0.60;99.90
28530;DHT22;15737;49.760;6.632;2023-02-26T05:21:57;-0.70;99.90
28530;DHT22;15737;49.760;6.632;2023-02-26T05:24:23;-0.80;99.90
28530;DHT22;15737;49.760;6.632;2023-02-26T05:26:48;-0.90;99.90
28530;DHT22;15737;49.760;6.632;2023-02-26T05:29:14;-0.90;99.90
28530;DHT22;15737;49.760;6.632;2023-02-26T05:31:39;-1.00;99.90
28530;DHT22;15737;49.760;6.632;2023-02-26T05:34:05;-1.00;99.90
28530;DHT22;15737;49.760;6.632;2023-02-26T05:36:30;-1.00;99.90
28530;DHT22;15737;49.760;6.632;2023-02-26T05:38:56;-1.10;99.90
28530;DHT22;15737;49.760;6.632;2023-02-26T05:41:21;-1.10;99.90
28530;DHT22;15737;49.760;6.632;2023-02-26T05:43:47;-1.20;99.90
28530;DHT22;15737;49.760;6.632;2023-02-26T05:46:12;-1.20;99.90
28530;DHT22;15737;49.760;6.632;2023-02-26T05:48:38;-1.20;99.90
28530;DHT22;15737;49.760;6.632;2023-02-26T05:51:04;-1.30;99.90
28530;DHT22;15737;49.760;6.632;2023-02-26T05:53:29;-1.30;99.90
28530;DHT22;15737;49.760;6.632;2023-02-26T05:55:55;-1.30;99.90
28530;DHT22;15737;49.760;6.632;2023-02-26T05:58:20;-1.40;99.90
28530;DHT22;15737;49.760;6.632;2023-02-26T06:00:46;-1.30;99.90
28530;DHT22;15737;49.760;6.632;2023-02-26T06:03:12;-1.30;99.90
28530;DHT22;15737;49.760;6.632;2023-02-26T06:05:37;-1.30;99.90
28530;DHT22;15737;49.760;6.632;2023-02-26T06:08:04;-1.30;99.90
28530;DHT22;15737;49.760;6.632;2023-02-26T06:10:30;-1.20;99.90
28530;DHT22;15737;49.760;6.632;2023-02-26T06:12:56;-1.10;99.90
28530;DHT22;15737;49.760;6.632;2023-02-26T06:15:22;-1.00;99.90
28530;DHT22;15737;49.760;6.632;2023-02-26T06:17:47;-1.00;99.90
28530;DHT22;15737;49.760;6.632;2023-02-26T06:20:13;-1.00;99.90
28530;DHT22;15737;49.760;6.632;2023-02-26T06:22:38;-0.90;99.90
28530;DHT22;15737;49.760;6.632;2023-02-26T06:25:05;-0.80;99.90
28530;DHT22;15737;49.760;6.632;2023-02-26T06:27:31;-0.70;99.90
28530;DHT22;15737;49.760;6.632;2023-02-26T06:29:56;-0.70;99.90
28530;DHT22;15737;49.760;6.632;2023-02-26T06:32:22;-0.60;99.90
28530;DHT22;15737;49.760;6.632;2023-02-26T06:34:47;-0.50;99.90
28530;DHT22;15737;49.760;6.632;2023-02-26T06:37:13;-0.50;99.90
28530;DHT22;15737;49.760;6.632;2023-02-26T06:39:39;-0.40;99.90
28530;DHT22;15737;49.760;6.632;2023-02-26T06:42:04;-0.40;99.90
28530;DHT22;15737;49.760;6.632;2023-02-26T06:44:30;-0.30;99.90
28530;DHT22;15737;49.760;6.632;2023-02-26T06:46:55;-0.20;99.90
28530;DHT22;15737;49.760;6.632;2023-02-26T06:49:21;-0.20;99.90
28530;DHT22;15737;49.760;6.632;2023-02-26T06:51:46;-0.10;99.90
28530;DHT22;15737;49.760;6.632;2023-02-26T06:54:12;-0.10;99.90
28530;DHT22;15737;49.760;6.632;2023-02-26T06:56:37;-0.10;99.90
28530;DHT22;15737;49.760;6.632;2023-02-26T06:59:03;-0.10;99.90
28530;DHT22;15737;49.760;6.632;2023-02-26T07:01:28;-0.10;99.90
28530;DHT22;15737;49.760;6.632;2023-02-26T07:03:56;-0.10;99.90
28530;DHT22;15737;49.760;6.632;2023-02-26T07:06:22;-0.10;99.90
28530;DHT22;15737;49.760;6.632;2023-02-26T07:08:47;0.00;99.90
28530;DHT22;15737;49.760;6.632;2023-02-26T07:11:13;0.10;99.90
28530;DHT22;15737;49.760;6.632;2023-02-26T07:13:39;0.20;99.90
28530;DHT22;15737;49.760;6.632;2023-02-26T07:16:04;0.20;99.90
28530;DHT22;15737;49.760;6.632;2023-02-26T07:18:33;0.10;99.90
28530;DHT22;15737;49.760;6.632;2023-02-26T07:20:59;0.00;99.90
28530;DHT22;15737;49.760;6.632;2023-02-26T07:23:24;0.00;99.90
28530;DHT22;15737;49.760;6.632;2023-02-26T07:25:50;0.20;99.90
28530;DHT22;15737;49.760;6.632;2023-02-26T07:28:15;1.80;99.90
28530;DHT22;15737;49.760;6.632;2023-02-26T07:30:41;3.80;99.90
28530;DHT22;15737;49.760;6.632;2023-02-26T07:33:07;5.70;98.40
28530;DHT22;15737;49.760;6.632;2023-02-26T07:35:33;7.20;94.50
28530;DHT22;15737;49.760;6.632;2023-02-26T07:37:58;7.30;93.10
28530;DHT22;15737;49.760;6.632;2023-02-26T07:40:24;7.90;92.40
28530;DHT22;15737;49.760;6.632;2023-02-26T07:42:49;8.30;91.00
28530;DHT22;15737;49.760;6.632;2023-02-26T07:45:15;7.70;91.50
28530;DHT22;15737;49.760;6.632;2023-02-26T07:47:49;5.80;91.70
28530;DHT22;15737;49.760;6.632;2023-02-26T07:50:15;3.90;94.00
28530;DHT22;15737;49.760;6.632;2023-02-26T07:52:41;2.90;95.90
28530;DHT22;15737;49.760;6.632;2023-02-26T07:55:08;2.50;97.10
28530;DHT22;15737;49.760;6.632;2023-02-26T07:57:34;2.60;98.10
28530;DHT22;15737;49.760;6.632;2023-02-26T07:59:59;3.80;96.60
28530;DHT22;15737;49.760;6.632;2023-02-26T08:02:25;4.30;96.10
28530;DHT22;15737;49.760;6.632;2023-02-26T08:04:51;6.10;94.30
28530;DHT22;15737;49.760;6.632;2023-02-26T08:07:17;8.60;91.10
28530;DHT22;15737;49.760;6.632;2023-02-26T08:09:42;11.00;84.30
28530;DHT22;15737;49.760;6.632;2023-02-26T08:12:08;13.40;74.80
28530;DHT22;15737;49.760;6.632;2023-02-26T08:14:33;14.40;68.90
28530;DHT22;15737;49.760;6.632;2023-02-26T08:16:59;14.60;64.50
28530;DHT22;15737;49.760;6.632;2023-02-26T08:19:24;14.40;62.80
28530;DHT22;15737;49.760;6.632;2023-02-26T08:21:50;14.20;62.70
28530;DHT22;15737;49.760;6.632;2023-02-26T08:24:16;14.20;63.30
28530;DHT22;15737;49.760;6.632;2023-02-26T08:26:41;12.90;64.00
28530;DHT22;15737;49.760;6.632;2023-02-26T08:29:07;11.40;67.20
28530;DHT22;15737;49.760;6.632;2023-02-26T08:31:34;11.50;66.00
28530;DHT22;15737;49.760;6.632;2023-02-26T08:34:00;9.50;68.90
28530;DHT22;15737;49.760;6.632;2023-02-26T08:36:25;8.00;74.30
28530;DHT22;15737;49.760;6.632;2023-02-26T08:38:51;6.90;75.70
28530;DHT22;15737;49.760;6.632;2023-02-26T08:41:17;5.60;79.20
28530;DHT22;15737;49.760;6.632;2023-02-26T08:43:43;4.40;82.00
28530;DHT22;15737;49.760;6.632;2023-02-26T08:46:09;3.60;85.20
28530;DHT22;15737;49.760;6.632;2023-02-26T08:48:34;3.00;87.60
28530;DHT22;15737;49.760;6.632;2023-02-26T08:50:59;2.80;90.20
28530;DHT22;15737;49.760;6.632;2023-02-26T08:53:25;2.90;90.10
28530;DHT22;15737;49.760;6.632;2023-02-26T08:55:51;3.00;90.50
28530;DHT22;15737;49.760;6.632;2023-02-26T08:58:18;3.30;90.60
28530;DHT22;15737;49.760;6.632;2023-02-26T09:00:44;3.40;90.30
28530;DHT22;15737;49.760;6.632;2023-02-26T09:03:10;3.20;90.30
28530;DHT22;15737;49.760;6.632;2023-02-26T09:05:36;3.00;90.50
28530;DHT22;15737;49.760;6.632;2023-02-26T09:08:03;3.00;91.10
28530;DHT22;15737;49.760;6.632;2023-02-26T09:10:28;2.80;91.10
28530;DHT22;15737;49.760;6.632;2023-02-26T09:12:54;2.60;91.10
28530;DHT22;15737;49.760;6.632;2023-02-26T09:15:20;2.50;91.60
28530;DHT22;15737;49.760;6.632;2023-02-26T09:17:46;2.60;91.70
28530;DHT22;15737;49.760;6.632;2023-02-26T09:20:12;2.60;91.40
28530;DHT22;15737;49.760;6.632;2023-02-26T09:22:38;2.90;91.30
28530;DHT22;15737;49.760;6.632;2023-02-26T09:25:05;3.40;91.00
28530;DHT22;15737;49.760;6.632;2023-02-26T09:27:31;4.10;90.10
28530;DHT22;15737;49.760;6.632;2023-02-26T09:29:56;6.40;85.60
28530;DHT22;15737;49.760;6.632;2023-02-26T09:32:22;6.30;81.50
28530;DHT22;15737;49.760;6.632;2023-02-26T09:34:47;5.60;82.10
28530;DHT22;15737;49.760;6.632;2023-02-26T09:37:13;5.90;82.80
28530;DHT22;15737;49.760;6.632;2023-02-26T09:39:38;6.10;80.10
28530;DHT22;15737;49.760;6.632;2023-02-26T09:44:43;6.70;79.90
28530;DHT22;15737;49.760;6.632;2023-02-26T09:47:16;7.40;77.40
28530;DHT22;15737;49.760;6.632;2023-02-26T09:50:02;7.30;75.70
28530;DHT22;15737;49.760;6.632;2023-02-26T09:55:25;4.70;79.40
28530;DHT22;15737;49.760;6.632;2023-02-26T09:57:54;5.90;80.30
28530;DHT22;15737;49.760;6.632;2023-02-26T10:00:35;8.40;75.80
28530;DHT22;15737;49.760;6.632;2023-02-26T10:06:11;11.40;60.90
28530;DHT22;15737;49.760;6.632;2023-02-26T10:11:25;10.70;63.00
28530;DHT22;15737;49.760;6.632;2023-02-26T10:14:13;9.80;65.70
28530;DHT22;15737;49.760;6.632;2023-02-26T10:16:44;10.60;63.30
28530;DHT22;15737;49.760;6.632;2023-02-26T10:19:15;9.20;64.10
28530;DHT22;15737;49.760;6.632;2023-02-26T10:22:00;8.00;67.40
28530;DHT22;15737;49.760;6.632;2023-02-26T10:24:41;6.90;67.20
28530;DHT22;15737;49.760;6.632;2023-02-26T10:27:15;5.90;70.00
28530;DHT22;15737;49.760;6.632;2023-02-26T10:29:55;7.00;70.70
28530;DHT22;15737;49.760;6.632;2023-02-26T10:32:32;7.70;68.70
28530;DHT22;15737;49.760;6.632;2023-02-26T10:35:04;7.70;68.10
28530;DHT22;15737;49.760;6.632;2023-02-26T10:37:57;7.70;67.10
28530;DHT22;15737;49.760;6.632;2023-02-26T10:40:45;6.80;67.90
28530;DHT22;15737;49.760;6.632;2023-02-26T10:43:27;6.20;69.60
28530;DHT22;15737;49.760;6.632;2023-02-26T10:48:50;5.60;69.70
28530;DHT22;15737;49.760;6.632;2023-02-26T10:51:20;5.20;71.60
28530;DHT22;15737;49.760;6.632;2023-02-26T10:54:03;5.70;72.40
28530;DHT22;15737;49.760;6.632;2023-02-26T10:58:59;7.00;69.10
28530;DHT22;15737;49.760;6.632;2023-02-26T11:01:27;6.50;69.40
28530;DHT22;15737;49.760;6.632;2023-02-26T11:04:09;6.20;70.10
28530;DHT22;15737;49.760;6.632;2023-02-26T11:06:45;5.90;71.30
28530;DHT22;15737;49.760;6.632;2023-02-26T11:09:22;6.80;71.30
28530;DHT22;15737;49.760;6.632;2023-02-26T11:12:03;7.90;69.10
28530;DHT22;15737;49.760;6.632;2023-02-26T11:14:32;8.00;67.10
28530;DHT22;15737;49.760;6.632;2023-02-26T11:17:00;8.60;66.90
28530;DHT22;15737;49.760;6.632;2023-02-26T11:19:32;9.10;66.80
28530;DHT22;15737;49.760;6.632;2023-02-26T11:21:59;9.70;65.80
28530;DHT22;15737;49.760;6.632;2023-02-26T11:24:30;10.20;63.40
28530;DHT22;15737;49.760;6.632;2023-02-26T11:26:59;10.00;62.70
28530;DHT22;15737;49.760;6.632;2023-02-26T11:29:36;9.90;63.20
28530;DHT22;15737;49.760;6.632;2023-02-26T11:32:04;9.50;62.70
28530;DHT22;15737;49.760;6.632;2023-02-26T11:34:30;9.60;63.80
28530;DHT22;15737;49.760;6.632;2023-02-26T11:36:59;10.10;62.90
28530;DHT22;15737;49.760;6.632;2023-02-26T11:39:27;10.50;62.10
28530;DHT22;15737;49.760;6.632;2023-02-26T11:41:57;10.10;59.60
28530;DHT22;15737;49.760;6.632;2023-02-26T11:44:38;9.20;61.30
28530;DHT22;15737;49.760;6.632;2023-02-26T11:49:41;7.40;63.80
28530;DHT22;15737;49.760;6.632;2023-02-26T11:54:38;7.00;64.40
28530;DHT22;15737;49.760;6.632;2023-02-26T11:57:15;6.60;64.90
28530;DHT22;15737;49.760;6.632;2023-02-26T11:59:48;6.20;64.70
28530;DHT22;15737;49.760;6.632;2023-02-26T12:02:18;5.80;65.90
28530;DHT22;15737;49.760;6.632;2023-02-26T12:04:48;6.20;66.80
28530;DHT22;15737;49.760;6.632;2023-02-26T12:07:15;7.60;66.10
28530;DHT22;15737;49.760;6.632;2023-02-26T12:09:41;8.80;63.50
28530;DHT22;15737;49.760;6.632;2023-02-26T12:40:55;7.50;60.60
28530;DHT22;15737;49.760;6.632;2023-02-26T12:43:43;7.00;62.80
28530;DHT22;15737;49.760;6.632;2023-02-26T13:05:52;6.60;63.80
28530;DHT22;15737;49.760;6.632;2023-02-26T13:11:13;6.40;64.40
28530;DHT22;15737;49.760;6.632;2023-02-26T13:19:22;5.80;64.30
28530;DHT22;15737;49.760;6.632;2023-02-26T13:21:55;5.90;64.40
28530;DHT22;15737;49.760;6.632;2023-02-26T13:24:38;5.90;64.60
28530;DHT22;15737;49.760;6.632;2023-02-26T13:27:06;6.50;65.10
28530;DHT22;15737;49.760;6.632;2023-02-26T13:29:43;6.80;64.00
28530;DHT22;15737;49.760;6.632;2023-02-26T13:32:17;6.90;63.80
28530;DHT22;15737;49.760;6.632;2023-02-26T13:35:03;7.30;63.40
28530;DHT22;15737;49.760;6.632;2023-02-26T13:37:49;7.00;63.40
28530;DHT22;15737;49.760;6.632;2023-02-26T13:43:09;7.30;64.00
28530;DHT22;15737;49.760;6.632;2023-02-26T13:48:54;7.20;63.20
28530;DHT22;15737;49.760;6.632;2023-02-26T13:51:36;7.10;62.90
28530;DHT22;15737;49.760;6.632;2023-02-26T13:59:46;6.20;62.80
28530;DHT22;15737;49.760;6.632;2023-02-26T14:04:56;6.30;62.70
28530;DHT22;15737;49.760;6.632;2023-02-26T14:07:46;6.30;62.10
28530;DHT22;15737;49.760;6.632;2023-02-26T14:10:27;6.20;62.50
28530;DHT22;15737;49.760;6.632;2023-02-26T14:13:30;6.80;63.00
28530;DHT22;15737;49.760;6.632;2023-02-26T14:16:21;7.60;61.40
28530;DHT22;15737;49.760;6.632;2023-02-26T14:21:35;6.60;62.40
28530;DHT22;15737;49.760;6.632;2023-02-26T14:24:24;6.00;63.70
28530;DHT22;15737;49.760;6.632;2023-02-26T14:35:11;5.20;67.70
28530;DHT22;15737;49.760;6.632;2023-02-26T14:37:39;5.60;67.80
28530;DHT22;15737;49.760;6.632;2023-02-26T14:40:15;6.10;67.20
28530;DHT22;15737;49.760;6.632;2023-02-26T14:42:49;6.70;66.40
28530;DHT22;15737;49.760;6.632;2023-02-26T14:47:41;6.10;64.60
28530;DHT22;15737;49.760;6.632;2023-02-26T14:50:12;5.30;65.20
28530;DHT22;15737;49.760;6.632;2023-02-26T15:01:08;4.10;68.00
28530;DHT22;15737;49.760;6.632;2023-02-26T15:04:13;4.20;68.10
28530;DHT22;15737;49.760;6.632;2023-02-26T15:09:22;4.20;68.10
28530;DHT22;15737;49.760;6.632;2023-02-26T15:17:51;3.90;67.40
28530;DHT22;15737;49.760;6.632;2023-02-26T15:20:34;4.00;67.70
28530;DHT22;15737;49.760;6.632;2023-02-26T15:23:30;4.20;66.50
28530;DHT22;15737;49.760;6.632;2023-02-26T15:25:59;4.10;66.20
28530;DHT22;15737;49.760;6.632;2023-02-26T15:28:31;4.10;66.10
28530;DHT22;15737;49.760;6.632;2023-02-26T15:30:58;4.00;66.10
28530;DHT22;15737;49.760;6.632;2023-02-26T15:33:25;4.00;66.00
28530;DHT22;15737;49.760;6.632;2023-02-26T15:35:53;4.00;66.40
28530;DHT22;15737;49.760;6.632;2023-02-26T15:38:19;4.00;66.20
28530;DHT22;15737;49.760;6.632;2023-02-26T15:40:45;4.10;66.50
28530;DHT22;15737;49.760;6.632;2023-02-26T15:43:15;4.10;66.20
28530;DHT22;15737;49.760;6.632;2023-02-26T15:45:43;3.90;66.20
28530;DHT22;15737;49.760;6.632;2023-02-26T15:48:17;3.70;66.70
28530;DHT22;15737;49.760;6.632;2023-02-26T15:50:47;3.50;67.20
28530;DHT22;15737;49.760;6.632;2023-02-26T15:53:35;3.30;67.30
28530;DHT22;15737;49.760;6.632;2023-02-26T15:56:04;3.20;67.50
28530;DHT22;15737;49.760;6.632;2023-02-26T16:01:03;3.00;67.90
28530;DHT22;15737;49.760;6.632;2023-02-26T16:03:33;2.90;68.20
28530;DHT22;15737;49.760;6.632;2023-02-26T16:05:59;2.90;68.40
28530;DHT22;15737;49.760;6.632;2023-02-26T16:08:25;2.80;68.50
28530;DHT22;15737;49.760;6.632;2023-02-26T16:10:53;3.00;68.90
28530;DHT22;15737;49.760;6.632;2023-02-26T16:13:30;3.10;68.50
28530;DHT22;15737;49.760;6.632;2023-02-26T16:16:01;3.40;68.80
28530;DHT22;15737;49.760;6.632;2023-02-26T16:18:30;3.60;68.30
28530;DHT22;15737;49.760;6.632;2023-02-26T16:20:58;3.70;68.40
28530;DHT22;15737;49.760;6.632;2023-02-26T16:26:04;3.70;68.20
28530;DHT22;15737;49.760;6.632;2023-02-26T16:28:32;3.80;68.60
28530;DHT22;15737;49.760;6.632;2023-02-26T16:31:02;3.90;68.70
28530;DHT22;15737;49.760;6.632;2023-02-26T16:33:32;3.80;68.80
28530;DHT22;15737;49.760;6.632;2023-02-26T16:36:11;3.80;68.80
28530;DHT22;15737;49.760;6.632;2023-02-26T16:38:45;3.80;69.20
28530;DHT22;15737;49.760;6.632;2023-02-26T16:41:12;3.80;69.40
28530;DHT22;15737;49.760;6.632;2023-02-26T16:43:50;3.70;69.50
28530;DHT22;15737;49.760;6.632;2023-02-26T16:46:30;3.50;70.00
28530;DHT22;15737;49.760;6.632;2023-02-26T16:49:21;3.20;69.00
28530;DHT22;15737;49.760;6.632;2023-02-26T16:51:48;2.90;69.40
28530;DHT22;15737;49.760;6.632;2023-02-26T16:56:45;2.70;69.60
28530;DHT22;15737;49.760;6.632;2023-02-26T16:59:19;2.60;69.70
28530;DHT22;15737;49.760;6.632;2023-02-26T17:02:00;2.50;69.90
28530;DHT22;15737;49.760;6.632;2023-02-26T17:04:30;2.40;70.10
28530;DHT22;15737;49.760;6.632;2023-02-26T17:06:56;2.30;70.10
28530;DHT22;15737;49.760;6.632;2023-02-26T17:09:40;2.10;70.40
28530;DHT22;15737;49.760;6.632;2023-02-26T17:12:14;2.10;70.80
28530;DHT22;15737;49.760;6.632;2023-02-26T17:14:42;1.90;71.10
28530;DHT22;15737;49.760;6.632;2023-02-26T17:17:09;1.90;71.60
28530;DHT22;15737;49.760;6.632;2023-02-26T17:19:35;1.80;71.80
28530;DHT22;15737;49.760;6.632;2023-02-26T17:22:01;1.80;72.00
28530;DHT22;15737;49.760;6.632;2023-02-26T17:26:56;1.70;72.10
28530;DHT22;15737;49.760;6.632;2023-02-26T17:29:30;1.70;72.10
28530;DHT22;15737;49.760;6.632;2023-02-26T17:31:56;1.70;71.80
28530;DHT22;15737;49.760;6.632;2023-02-26T17:34:21;1.70;72.00
28530;DHT22;15737;49.760;6.632;2023-02-26T17:36:47;1.80;71.90
28530;DHT22;15737;49.760;6.632;2023-02-26T17:39:13;1.80;71.80
28530;DHT22;15737;49.760;6.632;2023-02-26T17:41:42;1.80;72.70
28530;DHT22;15737;49.760;6.632;2023-02-26T17:44:08;1.80;71.90
28530;DHT22;15737;49.760;6.632;2023-02-26T17:46:34;1.80;72.10
28530;DHT22;15737;49.760;6.632;2023-02-26T17:48:59;1.80;72.40
28530;DHT22;15737;49.760;6.632;2023-02-26T17:51:25;1.80;72.40
28530;DHT22;15737;49.760;6.632;2023-02-26T17:53:51;1.80;72.40
28530;DHT22;15737;49.760;6.632;2023-02-26T17:56:25;1.70;72.50
28530;DHT22;15737;49.760;6.632;2023-02-26T17:58:51;1.70;72.90
28530;DHT22;15737;49.760;6.632;2023-02-26T18:01:17;1.70;73.10
28530;DHT22;15737;49.760;6.632;2023-02-26T18:03:43;1.70;73.20
28530;DHT22;15737;49.760;6.632;2023-02-26T18:06:10;1.70;73.30
28530;DHT22;15737;49.760;6.632;2023-02-26T18:08:37;1.70;73.50
28530;DHT22;15737;49.760;6.632;2023-02-26T18:11:05;1.70;73.40
28530;DHT22;15737;49.760;6.632;2023-02-26T18:13:31;1.80;73.50
28530;DHT22;15737;49.760;6.632;2023-02-26T18:15:57;1.80;73.50
28530;DHT22;15737;49.760;6.632;2023-02-26T18:18:26;1.80;73.80
28530;DHT22;15737;49.760;6.632;2023-02-26T18:20:52;1.80;74.10
28530;DHT22;15737;49.760;6.632;2023-02-26T18:23:17;1.90;74.00
28530;DHT22;15737;49.760;6.632;2023-02-26T18:25:44;1.90;73.90
28530;DHT22;15737;49.760;6.632;2023-02-26T18:28:16;1.90;74.00
28530;DHT22;15737;49.760;6.632;2023-02-26T18:30:42;1.90;74.10
28530;DHT22;15737;49.760;6.632;2023-02-26T18:33:10;1.80;74.40
28530;DHT22;15737;49.760;6.632;2023-02-26T18:35:35;1.80;74.60